Time;durP1;ratioP1;P1;durP2;ratioP2;P2;SDS_P1;SDS_P2;PMS_P1;PMS_P2;Temp;Humidity;BMP_temperature;BMP_pressure;BME280_temperature;BME280_humidity;BME280_pressure;Samples;Min_cycle;Max_cycle;Signal;HPM_P1;HPM_P2
2024/01/09 00:01:01;;;;;;;44.60;21.80;;;;;;;-13.10;100.00;100694.66;109532;1251;59055;-72
2024/01/09 00:03:42;;;;;;;44.30;23.50;;;;;;;-13.12;100.00;100697.44;108735;1251;1002374;-73
2024/01/09 00:06:19;;;;;;;42.20;21.10;;;;;;;-13.14;100.00;100698.67;109282;1251;59193;-74
2024/01/09 00:08:46;;;;;;;44.90;21.80;;;;;;;-13.16;100.00;100701.64;109508;1251;73675;-73
2024/01/09 00:11:13;;;;;;;38.60;20.70;;;;;;;-13.17;100.00;100706.38;108715;1251;1002712;-73
2024/01/09 00:13:40;;;;;;;40.80;21.80;;;;;;;-13.17;100.00;100709.12;109381;1251;61574;-74
2024/01/09 00:16:07;;;;;;;48.00;24.30;;;;;;;-13.17;100.00;100709.66;109477;1251;75873;-72
2024/01/09 00:18:34;;;;;;;46.90;23.20;;;;;;;-13.15;100.00;100711.13;109496;1251;69409;-73
2024/01/09 00:21:00;;;;;;;32.90;17.50;;;;;;;-13.13;100.00;100710.23;108779;1251;1002922;-73
2024/01/09 00:23:27;;;;;;;40.00;20.20;;;;;;;-13.09;100.00;100709.22;109530;1251;60284;-72
2024/01/09 00:25:53;;;;;;;38.10;18.20;;;;;;;-13.07;100.00;100717.23;109506;1251;60351;-72
2024/01/09 00:28:20;;;;;;;40.60;21.30;;;;;;;-13.05;100.00;100715.29;108737;1251;1002450;-73
2024/01/09 00:30:47;;;;;;;37.70;17.80;;;;;;;-13.05;100.00;100718.73;108740;1251;1002390;-72
2024/01/09 00:33:13;;;;;;;39.60;20.00;;;;;;;-13.05;100.00;100715.63;109516;1251;58974;-72
2024/01/09 00:35:40;;;;;;;39.80;20.10;;;;;;;-13.06;100.00;100721.55;109310;1251;59227;-72
2024/01/09 00:38:06;;;;;;;36.20;20.20;;;;;;;-13.07;100.00;100721.48;109537;1251;59139;-72
2024/01/09 00:40:33;;;;;;;41.20;19.00;;;;;;;-13.09;100.00;100726.48;109530;1251;59407;-72
2024/01/09 00:43:00;;;;;;;46.40;19.10;;;;;;;-13.10;100.00;100725.95;108565;1251;1003097;-73
2024/01/09 00:45:26;;;;;;;38.10;18.30;;;;;;;-13.11;100.00;100732.77;109540;1251;73668;-74
2024/01/09 00:47:53;;;;;;;40.60;20.00;;;;;;;-13.10;100.00;100730.21;109521;1251;60274;-72
2024/01/09 00:50:20;;;;;;;38.70;20.70;;;;;;;-13.10;100.00;100733.27;108832;1251;1002560;-73
2024/01/09 00:52:46;;;;;;;35.90;19.60;;;;;;;-13.11;100.00;100739.89;109502;1251;73486;-72
2024/01/09 00:55:15;;;;;;;40.00;20.70;;;;;;;-13.14;100.00;100739.73;109553;1251;68698;-73
2024/01/09 00:57:42;;;;;;;44.80;22.10;;;;;;;-13.16;100.00;100746.61;108567;1253;1002511;-72
2024/01/09 01:00:10;;;;;;;41.00;20.20;;;;;;;-13.19;100.00;100746.33;109249;1254;60382;-73
2024/01/09 01:02:36;;;;;;;37.90;19.50;;;;;;;-13.20;100.00;100748.10;108592;1253;1002917;-72
2024/01/09 01:05:03;;;;;;;42.40;21.70;;;;;;;-13.23;100.00;100743.33;109386;1253;59095;-73
2024/01/09 01:07:30;;;;;;;42.90;21.50;;;;;;;-13.26;100.00;100748.00;109258;1254;59086;-72
2024/01/09 01:09:56;;;;;;;45.20;21.80;;;;;;;-13.27;100.00;100743.17;108568;1253;1002173;-72
2024/01/09 01:12:23;;;;;;;40.00;20.60;;;;;;;-13.27;100.00;100746.23;109369;1253;59048;-75
2024/01/09 01:14:49;;;;;;;42.10;21.10;;;;;;;-13.30;100.00;100745.73;108608;1253;1002513;-73
2024/01/09 01:17:16;;;;;;;39.20;19.70;;;;;;;-13.33;100.00;100745.92;108322;1254;1002622;-73
2024/01/09 01:19:43;;;;;;;41.80;21.00;;;;;;;-13.36;100.00;100745.72;109377;1253;58969;-72
2024/01/09 01:22:09;;;;;;;45.10;20.30;;;;;;;-13.41;100.00;100744.63;108584;1253;1003085;-73
2024/01/09 01:24:36;;;;;;;35.80;19.90;;;;;;;-13.43;100.00;100741.73;109076;1253;59021;-74
2024/01/09 01:27:02;;;;;;;44.70;21.20;;;;;;;-13.46;100.00;100745.69;108556;1253;1002330;-73
2024/01/09 01:29:29;;;;;;;42.70;20.40;;;;;;;-13.49;100.00;100744.15;109342;1251;74578;-73
2024/01/09 01:31:55;;;;;;;39.40;21.20;;;;;;;-13.52;100.00;100748.77;109514;1251;59270;-72
2024/01/09 01:34:22;;;;;;;45.00;20.40;;;;;;;-13.54;100.00;100748.48;108757;1251;1002204;-73
2024/01/09 01:36:48;;;;;;;43.00;21.30;;;;;;;-13.55;100.00;100746.00;109515;1251;59056;-73
2024/01/09 01:39:15;;;;;;;37.80;20.40;;;;;;;-13.57;100.00;100747.79;109347;1251;59109;-73
2024/01/09 01:41:42;;;;;;;40.50;20.40;;;;;;;-13.58;100.00;100749.77;108746;1251;1002268;-72
2024/01/09 01:44:15;;;;;;;45.80;22.10;;;;;;;-13.61;100.00;100750.27;109550;1251;59546;-73
2024/01/09 01:46:45;;;;;;;46.40;24.70;;;;;;;-13.64;100.00;100752.70;108736;1251;1015777;-73
2024/01/09 01:49:14;;;;;;;36.80;20.10;;;;;;;-13.66;100.00;100754.08;109498;1251;61582;-73
2024/01/09 01:51:42;;;;;;;44.50;21.40;;;;;;;-13.68;100.00;100758.41;109554;1251;59004;-72
2024/01/09 01:54:11;;;;;;;33.80;18.50;;;;;;;-13.70;100.00;100757.98;108641;1254;1002305;-73
2024/01/09 01:56:39;;;;;;;50.40;22.20;;;;;;;-13.72;100.00;100762.48;109530;1251;68419;-73
2024/01/09 01:59:06;;;;;;;42.50;21.60;;;;;;;-13.75;100.00;100758.86;109519;1251;72442;-73
2024/01/09 02:01:32;;;;;;;46.70;21.90;;;;;;;-13.78;100.00;100758.36;109531;1251;61682;-73
2024/01/09 02:04:00;;;;;;;38.10;17.60;;;;;;;-13.80;100.00;100752.58;108747;1251;1002931;-73
2024/01/09 02:06:26;;;;;;;44.90;21.80;;;;;;;-13.85;100.00;100751.98;109488;1251;75312;-72
2024/01/09 02:08:54;;;;;;;41.60;22.20;;;;;;;-13.88;100.00;100760.17;108776;1251;1002625;-72
2024/01/09 02:11:21;;;;;;;40.10;21.60;;;;;;;-13.91;100.00;100757.40;109530;1251;72688;-73
2024/01/09 02:13:47;;;;;;;44.50;21.90;;;;;;;-13.95;100.00;100757.73;109495;1251;59645;-72
2024/01/09 02:16:14;;;;;;;37.90;20.60;;;;;;;-13.97;100.00;100755.05;108771;1251;1002329;-73
2024/01/09 02:18:41;;;;;;;48.00;20.40;;;;;;;-13.98;100.00;100753.59;108794;1251;1002616;-73
2024/01/09 02:21:07;;;;;;;36.20;19.30;;;;;;;-13.99;100.00;100751.48;109561;1251;69175;-72
2024/01/09 02:23:34;;;;;;;41.00;22.00;;;;;;;-14.02;100.00;100754.06;108750;1251;1002938;-73
2024/01/09 02:26:01;;;;;;;45.90;22.80;;;;;;;-14.04;100.00;100756.48;109516;1251;61524;-72
2024/01/09 02:28:30;;;;;;;38.60;19.60;;;;;;;-14.07;100.00;100759.55;108735;1251;1002450;-73
2024/01/09 02:30:57;;;;;;;43.70;20.80;;;;;;;-14.10;100.00;100761.60;108747;1251;1002912;-72
2024/01/09 02:33:24;;;;;;;44.30;22.80;;;;;;;-14.13;100.00;100759.02;108779;1251;1002813;-73
2024/01/09 02:35:51;;;;;;;52.20;23.60;;;;;;;-14.15;100.00;100763.69;108763;1251;1002279;-73
2024/01/09 02:38:17;;;;;;;38.50;18.70;;;;;;;-14.17;100.00;100764.91;109528;1251;61563;-72
2024/01/09 02:40:44;;;;;;;42.30;20.10;;;;;;;-14.20;100.00;100764.11;108783;1251;1003068;-72
2024/01/09 02:43:10;;;;;;;42.00;23.30;;;;;;;-14.22;100.00;100761.88;109491;1251;59379;-72
2024/01/09 02:45:37;;;;;;;46.00;23.10;;;;;;;-14.26;100.00;100761.98;109494;1251;68708;-73
2024/01/09 02:48:04;;;;;;;47.90;23.50;;;;;;;-14.31;100.00;100764.09;108656;1251;1002508;-73
2024/01/09 02:50:30;;;;;;;52.00;23.10;;;;;;;-14.35;100.00;100767.28;108752;1251;1002455;-73
2024/01/09 02:52:57;;;;;;;45.10;23.00;;;;;;;-14.38;100.00;100767.61;109586;1251;58964;-73
2024/01/09 02:55:23;;;;;;;45.20;21.90;;;;;;;-14.39;100.00;100767.88;109513;1252;59040;-73
2024/01/09 02:57:50;;;;;;;49.30;24.30;;;;;;;-14.42;100.00;100763.73;109472;1251;59411;-73
2024/01/09 03:00:32;;;;;;;45.90;21.30;;;;;;;-14.44;100.00;100761.05;109510;1251;59417;-73
2024/01/09 03:02:58;;;;;;;42.00;21.40;;;;;;;-14.46;100.00;100761.98;109528;1251;60350;-73
2024/01/09 03:05:25;;;;;;;47.00;23.10;;;;;;;-14.48;100.00;100756.88;108745;1251;1002382;-73
2024/01/09 03:07:51;;;;;;;39.90;20.10;;;;;;;-14.50;100.00;100759.38;109476;1251;74371;-72
2024/01/09 03:10:18;;;;;;;44.50;23.20;;;;;;;-14.54;100.00;100755.73;108773;1251;1002424;-73
2024/01/09 03:12:44;;;;;;;39.20;19.40;;;;;;;-14.56;100.00;100757.45;108764;1251;1002754;-73
2024/01/09 03:15:11;;;;;;;38.10;17.70;;;;;;;-14.60;100.00;100757.56;109383;1251;60404;-73
2024/01/09 03:17:38;;;;;;;45.90;20.60;;;;;;;-14.63;100.00;100758.09;108779;1251;1002340;-72
2024/01/09 03:20:06;;;;;;;35.00;17.90;;;;;;;-14.62;100.00;100764.27;109500;1251;74742;-73
2024/01/09 03:22:32;;;;;;;47.90;21.00;;;;;;;-14.63;100.00;100765.08;109441;1251;69880;-73
2024/01/09 03:24:59;;;;;;;42.40;19.00;;;;;;;-14.64;100.00;100759.88;107953;1251;1003044;-73
2024/01/09 03:27:25;;;;;;;38.20;18.40;;;;;;;-14.65;100.00;100755.91;108748;1253;1002810;-73
2024/01/09 03:29:52;;;;;;;37.10;20.70;;;;;;;-14.67;100.00;100753.92;109569;1251;59056;-72
2024/01/09 03:32:18;;;;;;;38.40;20.40;;;;;;;-14.69;100.00;100755.84;109493;1251;58946;-72
2024/01/09 03:34:45;;;;;;;41.30;21.80;;;;;;;-14.72;100.00;100752.23;109551;1251;59097;-73
2024/01/09 03:37:13;;;;;;;41.20;20.70;;;;;;;-14.74;100.00;100751.59;109469;1251;59510;-73
2024/01/09 03:39:39;;;;;;;35.90;19.00;;;;;;;-14.75;100.00;100754.25;108755;1252;1002689;-73
2024/01/09 03:42:06;;;;;;;42.10;19.10;;;;;;;-14.76;100.00;100751.80;109444;1251;59197;-73
2024/01/09 03:44:33;;;;;;;41.20;21.20;;;;;;;-14.78;100.00;100749.11;109514;1251;59076;-72
2024/01/09 03:46:59;;;;;;;38.60;20.70;;;;;;;-14.79;100.00;100748.84;108764;1251;1003117;-72
2024/01/09 03:49:26;;;;;;;34.00;18.20;;;;;;;-14.81;100.00;100748.77;109403;1251;72433;-74
2024/01/09 03:51:53;;;;;;;40.20;21.20;;;;;;;-14.84;100.00;100750.13;108753;1251;1002401;-73
2024/01/09 03:54:19;;;;;;;40.10;19.50;;;;;;;-14.87;100.00;100754.38;109509;1251;59292;-72
2024/01/09 03:56:46;;;;;;;46.20;20.70;;;;;;;-14.91;100.00;100756.81;108617;1251;1002545;-73
2024/01/09 03:59:12;;;;;;;41.20;19.60;;;;;;;-14.94;100.00;100761.23;109532;1251;69953;-73
2024/01/09 04:01:40;;;;;;;42.30;21.50;;;;;;;-14.97;100.00;100768.89;109324;1251;72482;-74
2024/01/09 04:04:06;;;;;;;39.90;21.10;;;;;;;-15.00;100.00;100767.88;109512;1251;59414;-74
2024/01/09 04:06:34;;;;;;;43.90;20.70;;;;;;;-15.04;100.00;100770.20;108708;1253;1015029;-73
2024/01/09 04:09:00;;;;;;;38.20;20.00;;;;;;;-15.07;100.00;100772.58;109468;1254;75847;-72
2024/01/09 04:11:27;;;;;;;45.20;19.90;;;;;;;-15.09;100.00;100769.70;108780;1251;1002961;-74
2024/01/09 04:13:53;;;;;;;44.10;20.00;;;;;;;-15.12;100.00;100773.27;109505;1251;72655;-73
2024/01/09 04:16:20;;;;;;;34.60;17.30;;;;;;;-15.14;100.00;100776.90;108625;1251;1002561;-73
2024/01/09 04:18:47;;;;;;;37.20;18.20;;;;;;;-15.15;100.00;100781.26;109542;1251;60293;-73
2024/01/09 04:21:13;;;;;;;40.20;19.30;;;;;;;-15.15;100.00;100778.67;108670;1251;1003094;-74
2024/01/09 04:23:40;;;;;;;38.10;18.10;;;;;;;-15.15;100.00;100782.94;108767;1251;1003075;-74
2024/01/09 04:26:06;;;;;;;34.50;17.90;;;;;;;-15.14;100.00;100777.86;109495;1251;73908;-73
2024/01/09 04:28:33;;;;;;;39.80;18.60;;;;;;;-15.15;100.00;100777.35;108791;1251;1002843;-74
2024/01/09 04:31:00;;;;;;;46.80;20.20;;;;;;;-15.15;100.00;100777.34;109281;1251;60918;-74
2024/01/09 04:33:26;;;;;;;38.50;18.60;;;;;;;-15.14;100.00;100775.70;108750;1253;1002277;-73
2024/01/09 04:35:54;;;;;;;39.50;20.20;;;;;;;-15.14;100.00;100766.48;108808;1251;1002115;-73
2024/01/09 04:38:20;;;;;;;45.40;20.40;;;;;;;-15.13;100.00;100770.64;109543;1251;73655;-73
2024/01/09 04:40:47;;;;;;;42.20;20.30;;;;;;;-15.13;100.00;100768.23;108772;1251;1002614;-73
2024/01/09 04:43:14;;;;;;;40.40;20.10;;;;;;;-15.13;100.00;100768.94;109498;1251;61206;-72
2024/01/09 04:45:40;;;;;;;37.80;19.40;;;;;;;-15.12;100.00;100771.07;109544;1251;74766;-73
2024/01/09 04:48:08;;;;;;;43.10;19.60;;;;;;;-15.12;100.00;100766.44;108745;1251;1002387;-73
2024/01/09 04:50:34;;;;;;;47.70;21.70;;;;;;;-15.09;100.00;100771.57;108755;1251;1002719;-74
2024/01/09 04:53:01;;;;;;;45.90;21.10;;;;;;;-15.07;100.00;100771.50;109541;1251;59352;-75
2024/01/09 04:55:27;;;;;;;37.50;18.30;;;;;;;-15.04;100.00;100768.82;108792;1251;1002450;-74
2024/01/09 04:57:54;;;;;;;43.10;21.60;;;;;;;-15.02;100.00;100766.86;109511;1252;59049;-73
2024/01/09 05:00:22;;;;;;;41.70;21.10;;;;;;;-15.00;100.00;100766.34;109550;1251;59029;-74
2024/01/09 05:02:49;;;;;;;35.60;17.50;;;;;;;-14.99;100.00;100765.90;108733;1252;1002200;-73
2024/01/09 05:05:15;;;;;;;39.70;19.50;;;;;;;-14.97;100.00;100765.48;108721;1251;1002449;-74
2024/01/09 05:07:42;;;;;;;41.20;19.80;;;;;;;-14.95;100.00;100770.42;109533;1251;61618;-73
2024/01/09 05:10:09;;;;;;;38.70;19.80;;;;;;;-14.92;100.00;100775.85;108801;1251;1003100;-73
2024/01/09 05:12:35;;;;;;;36.90;19.30;;;;;;;-14.91;100.00;100779.36;108731;1251;1002397;-73
2024/01/09 05:15:02;;;;;;;46.70;24.50;;;;;;;-14.93;100.00;100777.02;109526;1251;59074;-73
2024/01/09 05:17:28;;;;;;;38.10;21.10;;;;;;;-14.97;100.00;100776.77;109489;1251;59144;-73
2024/01/09 05:19:55;;;;;;;45.60;23.40;;;;;;;-15.02;100.00;100782.42;109358;1251;59099;-73
2024/01/09 05:22:22;;;;;;;44.50;22.90;;;;;;;-15.08;100.00;100784.91;109541;1251;75691;-73
2024/01/09 05:24:49;;;;;;;41.70;21.30;;;;;;;-15.10;100.00;100793.50;108039;1251;1002584;-72
2024/01/09 05:27:15;;;;;;;37.30;20.70;;;;;;;-15.12;100.00;100792.16;109507;1252;73823;-73
2024/01/09 05:29:42;;;;;;;42.30;21.90;;;;;;;-15.15;100.00;100795.59;109250;1251;59312;-73
2024/01/09 05:32:08;;;;;;;41.10;22.00;;;;;;;-15.17;100.00;100798.86;108777;1251;1002652;-72
2024/01/09 05:34:35;;;;;;;44.50;22.40;;;;;;;-15.18;100.00;100803.55;109526;1251;75829;-73
2024/01/09 05:37:01;;;;;;;42.80;22.10;;;;;;;-15.19;100.00;100808.63;108774;1252;1002832;-73
2024/01/09 05:39:28;;;;;;;45.90;22.80;;;;;;;-15.19;100.00;100812.36;109537;1251;72662;-73
2024/01/09 05:41:55;;;;;;;43.40;23.00;;;;;;;-15.22;100.00;100813.52;108717;1251;1002855;-73
2024/01/09 05:44:22;;;;;;;45.30;23.00;;;;;;;-15.22;100.00;100821.02;108769;1251;1003098;-73
2024/01/09 05:46:50;;;;;;;45.20;23.30;;;;;;;-15.26;100.00;100821.80;109482;1251;74686;-73
2024/01/09 05:49:16;;;;;;;44.60;22.10;;;;;;;-15.28;100.00;100822.17;108790;1251;1002434;-73
2024/01/09 05:51:43;;;;;;;42.00;21.60;;;;;;;-15.29;100.00;100830.15;109453;1251;72738;-74
2024/01/09 05:54:10;;;;;;;42.70;22.70;;;;;;;-15.28;100.00;100829.15;108597;1251;1003092;-74
2024/01/09 05:56:37;;;;;;;47.50;21.40;;;;;;;-15.27;100.00;100830.23;108517;1251;1003071;-73
2024/01/09 05:59:03;;;;;;;34.40;16.90;;;;;;;-15.28;100.00;100835.48;108756;1253;1002518;-73
2024/01/09 06:01:30;;;;;;;37.10;19.40;;;;;;;-15.30;100.00;100838.23;109515;1251;69681;-73
2024/01/09 06:03:56;;;;;;;39.50;18.20;;;;;;;-15.31;100.00;100838.98;108793;1251;1002299;-73
2024/01/09 06:06:23;;;;;;;41.30;20.40;;;;;;;-15.34;100.00;100839.69;109324;1251;60331;-74
2024/01/09 06:08:49;;;;;;;39.70;18.20;;;;;;;-15.36;100.00;100849.79;108729;1251;1002549;-73
2024/01/09 06:11:16;;;;;;;35.80;17.10;;;;;;;-15.38;100.00;100851.20;109518;1251;59430;-74
2024/01/09 06:13:43;;;;;;;38.40;20.20;;;;;;;-15.40;100.00;100853.91;107558;1254;1002632;-73
2024/01/09 06:16:09;;;;;;;33.30;17.90;;;;;;;-15.42;100.00;100854.46;109509;1251;59099;-73
2024/01/09 06:18:36;;;;;;;43.80;19.10;;;;;;;-15.45;100.00;100857.15;109534;1251;59019;-74
2024/01/09 06:21:03;;;;;;;40.00;20.50;;;;;;;-15.48;100.00;100859.36;109526;1251;58867;-74
2024/01/09 06:23:29;;;;;;;37.00;20.20;;;;;;;-15.52;100.00;100859.30;109500;1251;75727;-72
2024/01/09 06:25:56;;;;;;;46.70;23.00;;;;;;;-15.56;100.00;100858.52;107991;1254;1002406;-73
2024/01/09 06:28:23;;;;;;;38.50;19.00;;;;;;;-15.59;100.00;100861.34;108746;1251;1002317;-72
2024/01/09 06:30:50;;;;;;;33.80;18.40;;;;;;;-15.62;100.00;100869.82;108746;1251;1002489;-73
2024/01/09 06:33:16;;;;;;;39.60;18.70;;;;;;;-15.65;100.00;100869.46;109511;1251;59386;-73
2024/01/09 06:35:43;;;;;;;39.70;19.10;;;;;;;-15.67;100.00;100871.85;108744;1251;1002998;-73
2024/01/09 06:38:09;;;;;;;36.40;19.00;;;;;;;-15.69;100.00;100869.19;109545;1251;59222;-73
2024/01/09 06:40:36;;;;;;;38.90;18.50;;;;;;;-15.71;100.00;100871.50;107814;1251;1002735;-73
2024/01/09 06:43:03;;;;;;;44.30;22.00;;;;;;;-15.73;100.00;100873.23;109508;1251;59015;-74
2024/01/09 06:45:30;;;;;;;38.40;21.60;;;;;;;-15.75;100.00;100873.25;109351;1251;59088;-73
2024/01/09 06:47:57;;;;;;;45.40;20.70;;;;;;;-15.77;100.00;100873.33;109514;1251;75987;-73
2024/01/09 06:50:23;;;;;;;49.90;23.50;;;;;;;-15.79;100.00;100870.80;107969;1251;1003096;-72
2024/01/09 06:52:50;;;;;;;47.70;22.00;;;;;;;-15.80;100.00;100873.95;108753;1253;1002338;-73
2024/01/09 06:55:17;;;;;;;47.60;23.70;;;;;;;-15.79;100.00;100880.81;108703;1251;1002922;-73
2024/01/09 06:57:44;;;;;;;36.70;20.30;;;;;;;-15.78;100.00;100879.67;109563;1251;60414;-73
2024/01/09 07:00:11;;;;;;;50.70;22.60;;;;;;;-15.78;100.00;100884.13;108727;1254;1002300;-73
2024/01/09 07:02:38;;;;;;;50.70;22.20;;;;;;;-15.79;100.00;100880.66;109524;1251;68713;-74
2024/01/09 07:05:04;;;;;;;47.70;21.40;;;;;;;-15.77;100.00;100880.95;108680;1251;1002287;-74
2024/01/09 07:07:31;;;;;;;49.40;23.70;;;;;;;-15.76;100.00;100884.95;108717;1251;1003117;-72
2024/01/09 07:09:58;;;;;;;53.50;24.40;;;;;;;-15.77;100.00;100886.27;108682;1251;1002902;-73
2024/01/09 07:12:24;;;;;;;50.20;24.70;;;;;;;-15.75;100.00;100892.16;109506;1254;73844;-73
2024/01/09 07:14:51;;;;;;;50.30;23.80;;;;;;;-15.74;100.00;100893.59;108778;1251;1002358;-73
2024/01/09 07:17:17;;;;;;;48.90;23.50;;;;;;;-15.73;100.00;100896.39;109517;1251;73608;-73
2024/01/09 07:19:44;;;;;;;48.10;23.40;;;;;;;-15.71;100.00;100896.34;108737;1251;1002987;-74
2024/01/09 07:22:10;;;;;;;41.20;20.30;;;;;;;-15.70;100.00;100897.57;109500;1251;59046;-73
2024/01/09 07:24:37;;;;;;;42.80;21.10;;;;;;;-15.69;100.00;100899.69;107226;1251;1002986;-73
2024/01/09 07:27:04;;;;;;;46.80;23.20;;;;;;;-15.66;100.00;100898.48;109514;1251;59021;-73
2024/01/09 07:29:30;;;;;;;41.00;19.90;;;;;;;-15.64;100.00;100903.73;109466;1251;73943;-74
2024/01/09 07:31:57;;;;;;;52.80;25.70;;;;;;;-15.63;100.00;100903.86;108754;1251;1002138;-73
2024/01/09 07:34:23;;;;;;;50.60;24.00;;;;;;;-15.59;100.00;100906.48;109463;1255;60749;-72
2024/01/09 07:36:50;;;;;;;54.20;26.10;;;;;;;-15.55;100.00;100907.43;108740;1251;1002608;-73
2024/01/09 07:39:16;;;;;;;59.30;25.20;;;;;;;-15.52;100.00;100903.02;109470;1251;69598;-74
2024/01/09 07:41:43;;;;;;;52.70;26.30;;;;;;;-15.47;100.00;100907.98;108720;1251;1002926;-72
2024/01/09 07:44:12;;;;;;;50.70;25.90;;;;;;;-15.43;100.00;100906.89;107961;1251;1002515;-73
2024/01/09 07:46:38;;;;;;;46.00;24.90;;;;;;;-15.38;100.00;100908.78;108720;1254;1002607;-73
2024/01/09 07:49:05;;;;;;;48.70;25.00;;;;;;;-15.34;100.00;100905.09;109512;1251;74769;-73
2024/01/09 07:51:32;;;;;;;55.20;26.80;;;;;;;-15.32;100.00;100913.09;109536;1251;68920;-73
2024/01/09 07:53:58;;;;;;;47.80;23.40;;;;;;;-15.30;100.00;100907.76;108642;1253;1003105;-72
2024/01/09 07:56:25;;;;;;;46.40;25.30;;;;;;;-15.26;100.00;100906.34;109401;1252;61615;-74
2024/01/09 07:58:51;;;;;;;53.30;25.50;;;;;;;-15.21;100.00;100910.41;108674;1252;1002244;-73
2024/01/09 08:01:18;;;;;;;47.50;22.60;;;;;;;-15.15;100.00;100911.82;109319;1252;59147;-72
2024/01/09 08:03:45;;;;;;;44.60;22.20;;;;;;;-15.11;100.00;100913.15;109431;1252;70360;-73
2024/01/09 08:06:13;;;;;;;53.00;26.60;;;;;;;-15.07;100.00;100913.23;109416;1252;73592;-73
2024/01/09 08:08:41;;;;;;;54.50;25.90;;;;;;;-15.03;100.00;100917.08;108616;1252;1002536;-73
2024/01/09 08:11:08;;;;;;;51.60;26.00;;;;;;;-14.96;100.00;100914.40;108660;1252;1002375;-73
2024/01/09 08:13:36;;;;;;;53.90;27.20;;;;;;;-14.90;100.00;100914.52;109399;1252;75557;-73
2024/01/09 08:16:03;;;;;;;59.40;30.60;;;;;;;-14.81;100.00;100912.48;108653;1252;1014972;-73
2024/01/09 08:18:32;;;;;;;67.50;34.20;;;;;;;-14.72;100.00;100913.94;109395;1252;73774;-74
2024/01/09 08:20:59;;;;;;;68.40;31.20;;;;;;;-14.63;100.00;100917.92;109434;1252;61357;-73
2024/01/09 08:23:26;;;;;;;68.40;35.80;;;;;;;-14.56;100.00;100921.28;108677;1252;1002292;-75
2024/01/09 08:25:52;;;;;;;57.50;32.30;;;;;;;-14.47;100.00;100920.13;108632;1252;1002350;-75
2024/01/09 08:28:19;;;;;;;64.70;33.60;;;;;;;-14.37;100.00;100918.51;109370;1253;69440;-75
2024/01/09 08:30:46;;;;;;;64.70;32.10;;;;;;;-14.31;100.00;100921.43;108721;1251;1002420;-72
2024/01/09 08:33:12;;;;;;;61.80;30.20;;;;;;;-14.29;100.00;100918.34;108693;1251;1002383;-76
2024/01/09 08:35:39;;;;;;;49.40;25.70;;;;;;;-14.25;100.00;100914.52;109146;1253;60640;-75
2024/01/09 08:38:06;;;;;;;77.10;40.30;;;;;;;-14.21;100.00;100912.36;109297;1252;74931;-75
2024/01/09 08:40:32;;;;;;;61.40;31.50;;;;;;;-14.17;100.00;100911.79;108577;1252;1002293;-75
2024/01/09 08:42:59;;;;;;;58.10;32.70;;;;;;;-14.16;100.00;100913.05;109344;1252;59720;-72
2024/01/09 08:45:26;;;;;;;72.20;37.30;;;;;;;-14.10;100.00;100922.46;109459;1252;59046;-73
2024/01/09 08:47:53;;;;;;;54.90;29.90;;;;;;;-14.07;100.00;100924.53;109466;1252;61521;-75
2024/01/09 08:50:19;;;;;;;68.10;34.40;;;;;;;-14.03;100.00;100927.46;108653;1252;1002413;-74
2024/01/09 08:52:46;;;;;;;62.10;31.40;;;;;;;-13.96;100.00;100926.90;109441;1253;58989;-74
2024/01/09 08:55:12;;;;;;;58.30;30.20;;;;;;;-13.88;100.00;100919.55;109432;1253;59102;-74
2024/01/09 08:57:39;;;;;;;65.00;33.30;;;;;;;-13.80;100.00;100917.99;109409;1252;59113;-74
2024/01/09 09:00:07;;;;;;;66.70;33.20;;;;;;;-13.74;100.00;100922.10;109416;1252;60529;-74
2024/01/09 09:02:34;;;;;;;66.60;35.90;;;;;;;-13.65;100.00;100922.83;108648;1253;1002794;-73
2024/01/09 09:05:00;;;;;;;66.30;36.90;;;;;;;-13.56;100.00;100929.02;109410;1252;67930;-74
2024/01/09 09:07:27;;;;;;;61.50;32.50;;;;;;;-13.48;100.00;100928.95;108651;1252;1002437;-74
2024/01/09 09:09:54;;;;;;;65.20;33.50;;;;;;;-13.41;100.00;100928.17;109437;1256;60433;-74
2024/01/09 09:12:21;;;;;;;70.00;34.20;;;;;;;-13.39;100.00;100931.92;108679;1253;1002482;-74
2024/01/09 09:14:47;;;;;;;71.90;36.40;;;;;;;-13.33;100.00;100931.76;109409;1253;75831;-74
2024/01/09 09:17:16;;;;;;;87.60;42.50;;;;;;;-13.30;100.00;100925.80;108691;1254;1003083;-75
2024/01/09 09:19:42;;;;;;;101.50;46.70;;;;;;;-13.22;100.00;100923.83;109410;1255;72772;-75
2024/01/09 09:22:10;;;;;;;76.30;36.60;;;;;;;-13.19;100.00;100917.34;108663;1253;1002450;-74
2024/01/09 09:24:37;;;;;;;78.20;41.30;;;;;;;-13.23;100.00;100916.93;109412;1252;61311;-74
2024/01/09 09:27:04;;;;;;;77.80;39.60;;;;;;;-13.25;100.00;100914.23;108648;1254;1003063;-74
2024/01/09 09:29:31;;;;;;;85.90;42.80;;;;;;;-13.24;100.00;100914.98;108640;1253;1002308;-74
2024/01/09 09:31:57;;;;;;;67.90;35.50;;;;;;;-13.18;100.00;100915.50;109392;1252;72645;-74
2024/01/09 09:34:24;;;;;;;71.80;36.40;;;;;;;-13.15;100.00;100918.04;109396;1253;61385;-75
2024/01/09 09:36:50;;;;;;;70.00;36.30;;;;;;;-13.10;100.00;100915.13;108640;1254;1002520;-75
2024/01/09 09:39:17;;;;;;;71.00;34.10;;;;;;;-13.06;100.00;100913.96;109400;1253;73914;-75
2024/01/09 09:41:44;;;;;;;75.60;38.00;;;;;;;-13.05;100.00;100911.64;109129;1259;68719;-75
2024/01/09 09:44:13;;;;;;;71.60;36.80;;;;;;;-13.00;100.00;100911.41;109401;1252;73791;-74
2024/01/09 09:46:41;;;;;;;70.30;37.30;;;;;;;-12.95;100.00;100909.12;108320;1254;1002485;-75
2024/01/09 09:49:09;;;;;;;64.60;33.50;;;;;;;-12.91;100.00;100907.84;109380;1253;61451;-75
2024/01/09 09:51:36;;;;;;;77.60;37.30;;;;;;;-12.82;100.00;100903.23;109352;1253;75677;-74
2024/01/09 09:54:03;;;;;;;74.60;39.20;;;;;;;-12.71;100.00;100899.19;109377;1253;69681;-74
2024/01/09 09:56:31;;;;;;;62.70;32.70;;;;;;;-12.62;100.00;100895.98;108989;1258;71640;-74
2024/01/09 09:58:57;;;;;;;63.40;32.20;;;;;;;-12.53;100.00;100887.72;109347;1252;61505;-75
2024/01/09 10:01:27;;;;;;;68.30;35.40;;;;;;;-12.48;100.00;100887.85;108648;1253;1002379;-75
2024/01/09 10:03:56;;;;;;;66.80;35.50;;;;;;;-12.45;100.00;100886.98;109391;1254;75510;-73
2024/01/09 10:06:24;;;;;;;70.00;35.40;;;;;;;-12.34;100.00;100885.54;109337;1255;68789;-73
2024/01/09 10:08:53;;;;;;;65.10;35.20;;;;;;;-12.27;100.00;100881.98;108617;1253;1002286;-74
2024/01/09 10:11:20;;;;;;;65.20;33.90;;;;;;;-12.15;100.00;100880.24;109402;1254;61570;-73
2024/01/09 10:13:47;;;;;;;60.80;33.70;;;;;;;-12.07;100.00;100883.08;108643;1253;1002766;-73
2024/01/09 10:16:13;;;;;;;68.40;36.20;;;;;;;-11.98;100.00;100875.50;108669;1253;1002904;-74
2024/01/09 10:18:40;;;;;;;66.40;33.80;;;;;;;-11.91;100.00;100866.08;109145;1253;68685;-74
2024/01/09 10:21:07;;;;;;;61.90;30.30;;;;;;;-11.87;100.00;100861.00;109420;1253;73849;-73
2024/01/09 10:23:35;;;;;;;56.00;28.40;;;;;;;-11.86;100.00;100860.84;108676;1253;1003211;-72
2024/01/09 10:26:02;;;;;;;53.20;29.40;;;;;;;-11.87;100.00;100857.70;109402;1254;61607;-74
2024/01/09 10:28:29;;;;;;;66.80;32.60;;;;;;;-11.85;100.00;100857.83;108695;1253;1002857;-74
2024/01/09 10:30:55;;;;;;;54.10;30.00;;;;;;;-11.77;100.00;100860.61;109435;1253;68976;-73
2024/01/09 10:33:22;;;;;;;146.30;57.80;;;;;;;-11.70;100.00;100857.20;109367;1254;59058;-73
2024/01/09 10:35:49;;;;;;;97.40;52.40;;;;;;;-11.59;100.00;100855.72;108618;1252;1002240;-73
2024/01/09 10:38:22;;;;;;;59.60;33.10;;;;;;;-11.46;100.00;100850.71;108637;1252;1002626;-72